sensor_id;sensor_type;location;lat;lon;timestamp;pressure;altitude;pressure_sealevel;temperature;humidity
16030;BME280;34770;49.272;11.070;2022-07-09T00:00:30;98788.25;;;15.18;84.60
16030;BME280;34770;49.272;11.070;2022-07-09T00:02:55;98774.50;;;15.12;83.47
16030;BME280;34770;49.272;11.070;2022-07-09T00:05:20;98789.50;;;15.36;83.89
16030;BME280;34770;49.272;11.070;2022-07-09T00:07:46;98775.31;;;15.29;82.98
16030;BME280;34770;49.272;11.070;2022-07-09T00:10:11;98781.19;;;15.24;84.66
16030;BME280;34770;49.272;11.070;2022-07-09T00:12:37;98769.25;;;15.11;83.82
16030;BME280;34770;49.272;11.070;2022-07-09T00:15:03;98779.56;;;15.23;85.17
16030;BME280;34770;49.272;11.070;2022-07-09T00:17:28;98783.19;;;15.23;84.44
16030;BME280;34770;49.272;11.070;2022-07-09T00:19:57;98778.22;;;15.32;87.67
16030;BME280;34770;49.272;11.070;2022-07-09T00:22:22;98770.78;;;15.24;87.14
16030;BME280;34770;49.272;11.070;2022-07-09T00:24:47;98772.22;;;15.34;88.80
16030;BME280;34770;49.272;11.070;2022-07-09T00:27:13;98766.34;;;15.39;87.88
16030;BME280;34770;49.272;11.070;2022-07-09T00:29:38;98760.81;;;15.43;86.75
16030;BME280;34770;49.272;11.070;2022-07-09T00:32:04;98769.59;;;15.41;87.87
16030;BME280;34770;49.272;11.070;2022-07-09T00:34:29;98760.09;;;15.46;87.71
16030;BME280;34770;49.272;11.070;2022-07-09T00:36:55;98763.41;;;15.52;87.97
16030;BME280;34770;49.272;11.070;2022-07-09T00:39:20;98760.91;;;15.46;86.92
16030;BME280;34770;49.272;11.070;2022-07-09T00:41:46;98763.31;;;15.48;85.96
16030;BME280;34770;49.272;11.070;2022-07-09T00:44:11;98759.72;;;15.47;85.54
16030;BME280;34770;49.272;11.070;2022-07-09T00:46:36;98756.53;;;15.49;84.59
16030;BME280;34770;49.272;11.070;2022-07-09T00:49:02;98758.38;;;15.41;85.77
16030;BME280;34770;49.272;11.070;2022-07-09T00:51:30;98756.28;;;15.38;84.31
16030;BME280;34770;49.272;11.070;2022-07-09T00:53:56;98758.66;;;15.04;85.81
16030;BME280;34770;49.272;11.070;2022-07-09T00:56:22;98749.81;;;15.02;86.09
16030;BME280;34770;49.272;11.070;2022-07-09T00:58:48;98755.16;;;15.07;87.00
16030;BME280;34770;49.272;11.070;2022-07-09T01:01:13;98757.56;;;15.25;87.65
16030;BME280;34770;49.272;11.070;2022-07-09T01:03:39;98758.03;;;15.27;89.45
16030;BME280;34770;49.272;11.070;2022-07-09T01:06:04;98757.66;;;15.28;89.04
16030;BME280;34770;49.272;11.070;2022-07-09T01:08:30;98753.69;;;15.29;89.51
16030;BME280;34770;49.272;11.070;2022-07-09T01:10:55;98750.50;;;15.31;89.60
16030;BME280;34770;49.272;11.070;2022-07-09T01:13:21;98743.63;;;15.28;89.36
16030;BME280;34770;49.272;11.070;2022-07-09T01:15:47;98746.81;;;15.27;89.34
16030;BME280;34770;49.272;11.070;2022-07-09T01:18:13;98738.84;;;15.29;87.86
16030;BME280;34770;49.272;11.070;2022-07-09T01:20:38;98748.44;;;15.28;86.91
16030;BME280;34770;49.272;11.070;2022-07-09T01:23:04;98746.00;;;15.10;86.59
16030;BME280;34770;49.272;11.070;2022-07-09T01:25:40;98746.28;;;15.05;85.54
16030;BME280;34770;49.272;11.070;2022-07-09T01:28:07;98740.88;;;14.80;88.57
16030;BME280;34770;49.272;11.070;2022-07-09T01:30:34;98750.97;;;14.85;90.37
16030;BME280;34770;49.272;11.070;2022-07-09T01:33:00;98739.13;;;14.76;92.08
16030;BME280;34770;49.272;11.070;2022-07-09T01:35:26;98731.53;;;14.76;91.34
16030;BME280;34770;49.272;11.070;2022-07-09T01:37:52;98732.97;;;14.86;91.33
16030;BME280;34770;49.272;11.070;2022-07-09T01:40:19;98736.88;;;14.81;91.96
16030;BME280;34770;49.272;11.070;2022-07-09T01:42:44;98734.44;;;14.80;93.23
16030;BME280;34770;49.272;11.070;2022-07-09T01:45:10;98736.88;;;14.81;92.13
16030;BME280;34770;49.272;11.070;2022-07-09T01:47:35;98739.19;;;14.63;91.78
16030;BME280;34770;49.272;11.070;2022-07-09T01:50:01;98742.22;;;14.58;92.67
16030;BME280;34770;49.272;11.070;2022-07-09T01:52:28;98733.03;;;14.58;92.49
16030;BME280;34770;49.272;11.070;2022-07-09T01:54:54;98728.31;;;14.62;93.51
16030;BME280;34770;49.272;11.070;2022-07-09T01:57:19;98724.34;;;14.63;92.60
16030;BME280;34770;49.272;11.070;2022-07-09T01:59:45;98721.56;;;14.63;93.02
16030;BME280;34770;49.272;11.070;2022-07-09T02:02:10;98720.19;;;14.57;93.00
16030;BME280;34770;49.272;11.070;2022-07-09T02:04:35;98729.28;;;14.66;93.31
16030;BME280;34770;49.272;11.070;2022-07-09T02:07:01;98725.78;;;14.57;93.29
16030;BME280;34770;49.272;11.070;2022-07-09T02:09:26;98723.47;;;14.59;91.82
16030;BME280;34770;49.272;11.070;2022-07-09T02:11:51;98712.34;;;14.46;93.26
16030;BME280;34770;49.272;11.070;2022-07-09T02:14:17;98699.03;;;14.43;94.08
16030;BME280;34770;49.272;11.070;2022-07-09T02:16:42;98716.03;;;14.50;93.78
16030;BME280;34770;49.272;11.070;2022-07-09T02:19:08;98721.53;;;14.47;94.17
16030;BME280;34770;49.272;11.070;2022-07-09T02:21:33;98720.06;;;14.37;94.14
16030;BME280;34770;49.272;11.070;2022-07-09T02:23:59;98721.44;;;14.43;94.46
16030;BME280;34770;49.272;11.070;2022-07-09T02:26:26;98718.63;;;14.43;95.20
16030;BME280;34770;49.272;11.070;2022-07-09T02:28:53;98727.50;;;14.45;94.79
16030;BME280;34770;49.272;11.070;2022-07-09T02:31:18;98720.72;;;14.46;94.92
16030;BME280;34770;49.272;11.070;2022-07-09T02:33:44;98715.75;;;14.40;93.98
16030;BME280;34770;49.272;11.070;2022-07-09T02:36:09;98725.94;;;14.32;94.24
16030;BME280;34770;49.272;11.070;2022-07-09T02:38:35;98717.63;;;14.35;95.08
16030;BME280;34770;49.272;11.070;2022-07-09T02:41:00;98720.34;;;14.32;95.18
16030;BME280;34770;49.272;11.070;2022-07-09T02:43:26;98723.66;;;14.22;95.53
16030;BME280;34770;49.272;11.070;2022-07-09T02:45:52;98727.28;;;14.22;95.96
16030;BME280;34770;49.272;11.070;2022-07-09T02:48:21;98717.56;;;14.19;95.27
16030;BME280;34770;49.272;11.070;2022-07-09T02:50:46;98721.41;;;14.27;94.92
16030;BME280;34770;49.272;11.070;2022-07-09T02:53:11;98726.84;;;14.36;95.87
16030;BME280;34770;49.272;11.070;2022-07-09T02:55:37;98708.75;;;14.17;96.40
16030;BME280;34770;49.272;11.070;2022-07-09T02:58:02;98673.31;;;14.09;95.84
16030;BME280;34770;49.272;11.070;2022-07-09T03:00:27;98719.50;;;14.31;95.42
16030;BME280;34770;49.272;11.070;2022-07-09T03:02:53;98716.63;;;14.28;96.30
16030;BME280;34770;49.272;11.070;2022-07-09T03:05:18;98723.84;;;14.29;95.59
16030;BME280;34770;49.272;11.070;2022-07-09T03:07:44;98717.88;;;14.30;95.20
16030;BME280;34770;49.272;11.070;2022-07-09T03:10:09;98717.63;;;14.35;95.12
16030;BME280;34770;49.272;11.070;2022-07-09T03:12:34;98725.22;;;14.35;95.23
16030;BME280;34770;49.272;11.070;2022-07-09T03:15:00;98709.56;;;14.34;95.61
16030;BME280;34770;49.272;11.070;2022-07-09T03:17:25;98712.56;;;14.41;96.32
16030;BME280;34770;49.272;11.070;2022-07-09T03:19:52;98717.00;;;14.42;95.21
16030;BME280;34770;49.272;11.070;2022-07-09T03:22:17;98706.06;;;14.37;95.40
16030;BME280;34770;49.272;11.070;2022-07-09T03:24:43;98711.69;;;14.37;93.95
16030;BME280;34770;49.272;11.070;2022-07-09T03:27:08;98714.22;;;14.42;94.01
16030;BME280;34770;49.272;11.070;2022-07-09T03:29:34;98720.72;;;14.46;95.85
16030;BME280;34770;49.272;11.070;2022-07-09T03:32:00;98704.63;;;14.43;96.31
16030;BME280;34770;49.272;11.070;2022-07-09T03:34:26;98710.78;;;14.49;94.53
16030;BME280;34770;49.272;11.070;2022-07-09T03:36:51;98710.78;;;14.49;95.16
16030;BME280;34770;49.272;11.070;2022-07-09T03:39:17;98704.63;;;14.43;95.98
16030;BME280;34770;49.272;11.070;2022-07-09T03:41:42;98714.88;;;14.51;94.53
16030;BME280;34770;49.272;11.070;2022-07-09T03:44:07;98713.31;;;14.54;94.96
16030;BME280;34770;49.272;11.070;2022-07-09T03:46:33;98709.25;;;14.51;95.12
16030;BME280;34770;49.272;11.070;2022-07-09T03:48:59;98716.72;;;14.47;92.48
16030;BME280;34770;49.272;11.070;2022-07-09T03:51:24;98722.09;;;14.52;92.80
16030;BME280;34770;49.272;11.070;2022-07-09T03:53:50;98716.59;;;14.56;93.02
16030;BME280;34770;49.272;11.070;2022-07-09T03:56:16;98723.69;;;14.66;92.80
16030;BME280;34770;49.272;11.070;2022-07-09T03:58:42;98717.44;;;14.73;92.29
16030;BME280;34770;49.272;11.070;2022-07-09T04:01:08;98721.59;;;14.79;91.61
16030;BME280;34770;49.272;11.070;2022-07-09T04:03:34;98706.97;;;14.70;90.58
16030;BME280;34770;49.272;11.070;2022-07-09T04:05:59;98705.41;;;14.72;90.10
16030;BME280;34770;49.272;11.070;2022-07-09T04:08:25;98711.72;;;14.85;89.59
16030;BME280;34770;49.272;11.070;2022-07-09T04:10:50;98708.84;;;14.81;88.79
16030;BME280;34770;49.272;11.070;2022-07-09T04:13:16;98712.47;;;14.98;89.80
16030;BME280;34770;49.272;11.070;2022-07-09T04:15:41;98685.53;;;14.77;88.33
16030;BME280;34770;49.272;11.070;2022-07-09T04:18:06;98713.91;;;15.08;87.86
16030;BME280;34770;49.272;11.070;2022-07-09T04:20:32;98702.31;;;15.09;91.25
16030;BME280;34770;49.272;11.070;2022-07-09T04:22:57;98717.13;;;15.26;89.93
16030;BME280;34770;49.272;11.070;2022-07-09T04:25:22;98720.03;;;15.29;87.19
16030;BME280;34770;49.272;11.070;2022-07-09T04:27:48;98721.28;;;15.32;89.24
16030;BME280;34770;49.272;11.070;2022-07-09T04:30:13;98725.72;;;15.33;87.85
16030;BME280;34770;49.272;11.070;2022-07-09T04:32:38;98709.91;;;15.25;86.70
16030;BME280;34770;49.272;11.070;2022-07-09T04:35:04;98726.09;;;15.31;86.29
16030;BME280;34770;49.272;11.070;2022-07-09T04:37:30;98719.66;;;15.31;86.04
16030;BME280;34770;49.272;11.070;2022-07-09T04:39:55;98724.53;;;15.34;86.33
16030;BME280;34770;49.272;11.070;2022-07-09T04:42:21;98736.66;;;15.38;85.89
16030;BME280;34770;49.272;11.070;2022-07-09T04:44:46;98733.97;;;15.26;87.00
16030;BME280;34770;49.272;11.070;2022-07-09T04:47:12;98729.97;;;15.27;87.16
16030;BME280;34770;49.272;11.070;2022-07-09T04:49:37;98730.88;;;15.31;87.77
16030;BME280;34770;49.272;11.070;2022-07-09T04:52:03;98729.44;;;15.21;86.63
16030;BME280;34770;49.272;11.070;2022-07-09T04:54:29;98733.97;;;15.26;87.28
16030;BME280;34770;49.272;11.070;2022-07-09T04:56:54;98718.97;;;15.18;87.48
16030;BME280;34770;49.272;11.070;2022-07-09T04:59:19;98725.72;;;15.33;87.15
16030;BME280;34770;49.272;11.070;2022-07-09T05:01:45;98720.00;;;15.45;87.40
16030;BME280;34770;49.272;11.070;2022-07-09T05:04:11;98721.63;;;15.46;86.33
16030;BME280;34770;49.272;11.070;2022-07-09T05:06:36;98728.78;;;15.44;85.50
16030;BME280;34770;49.272;11.070;2022-07-09T05:09:02;98724.03;;;15.12;87.85
16030;BME280;34770;49.272;11.070;2022-07-09T05:11:28;98728.78;;;15.44;87.62
16030;BME280;34770;49.272;11.070;2022-07-09T05:13:53;98721.25;;;15.48;87.29
16030;BME280;34770;49.272;11.070;2022-07-09T05:16:19;98686.38;;;15.29;87.59
16030;BME280;34770;49.272;11.070;2022-07-09T05:18:44;98732.72;;;15.59;87.87
16030;BME280;34770;49.272;11.070;2022-07-09T05:21:09;98721.91;;;15.41;88.38
16030;BME280;34770;49.272;11.070;2022-07-09T05:23:35;98716.72;;;15.59;88.32
16030;BME280;34770;49.272;11.070;2022-07-09T05:26:00;98715.03;;;15.74;87.46
16030;BME280;34770;49.272;11.070;2022-07-09T05:28:26;98720.75;;;15.98;86.90
16030;BME280;34770;49.272;11.070;2022-07-09T05:30:51;98725.56;;;16.17;86.59
16030;BME280;34770;49.272;11.070;2022-07-09T05:33:17;98709.78;;;16.32;85.33
16030;BME280;34770;49.272;11.070;2022-07-09T05:35:44;98697.47;;;16.17;84.37
16030;BME280;34770;49.272;11.070;2022-07-09T05:38:09;98727.03;;;16.10;85.20
16030;BME280;34770;49.272;11.070;2022-07-09T05:40:35;98718.81;;;16.41;84.25
16030;BME280;34770;49.272;11.070;2022-07-09T05:43:00;98702.16;;;16.52;84.10
16030;BME280;34770;49.272;11.070;2022-07-09T05:45:25;98707.28;;;16.69;84.23
16030;BME280;34770;49.272;11.070;2022-07-09T05:47:51;98718.47;;;16.89;82.70
16030;BME280;34770;49.272;11.070;2022-07-09T05:50:16;98716.81;;;17.08;81.86
16030;BME280;34770;49.272;11.070;2022-07-09T05:52:41;98705.09;;;17.05;81.61
16030;BME280;34770;49.272;11.070;2022-07-09T05:55:07;98683.66;;;16.74;81.82
16030;BME280;34770;49.272;11.070;2022-07-09T05:57:33;98716.19;;;17.21;81.89
16030;BME280;34770;49.272;11.070;2022-07-09T05:59:58;98709.09;;;17.28;80.75
16030;BME280;34770;49.272;11.070;2022-07-09T06:02:23;98712.53;;;17.44;80.95
16030;BME280;34770;49.272;11.070;2022-07-09T06:04:49;98717.09;;;17.52;80.37
16030;BME280;34770;49.272;11.070;2022-07-09T06:07:15;98707.28;;;17.69;79.44
16030;BME280;34770;49.272;11.070;2022-07-09T06:09:40;98709.13;;;17.89;78.92
16030;BME280;34770;49.272;11.070;2022-07-09T06:12:06;98701.94;;;17.91;78.00
16030;BME280;34770;49.272;11.070;2022-07-09T06:14:32;98699.88;;;17.88;77.49
16030;BME280;34770;49.272;11.070;2022-07-09T06:16:58;98701.25;;;18.01;78.04
16030;BME280;34770;49.272;11.070;2022-07-09T06:19:26;98701.84;;;17.84;78.64
16030;BME280;34770;49.272;11.070;2022-07-09T06:21:51;98701.09;;;17.87;78.97
16030;BME280;34770;49.272;11.070;2022-07-09T06:24:16;98682.06;;;18.11;77.77
16030;BME280;34770;49.272;11.070;2022-07-09T06:26:42;98687.19;;;18.36;77.08
16030;BME280;34770;49.272;11.070;2022-07-09T06:29:07;98704.88;;;18.74;75.81
16030;BME280;34770;49.272;11.070;2022-07-09T06:31:33;98686.72;;;18.71;74.62
16030;BME280;34770;49.272;11.070;2022-07-09T06:34:01;98682.00;;;18.82;73.95
16030;BME280;34770;49.272;11.070;2022-07-09T06:36:28;98689.94;;;19.11;73.54
16030;BME280;34770;49.272;11.070;2022-07-09T06:38:53;98695.66;;;19.22;73.48
16030;BME280;34770;49.272;11.070;2022-07-09T06:41:37;98675.38;;;19.05;73.84
16030;BME280;34770;49.272;11.070;2022-07-09T06:44:02;98694.44;;;19.19;73.38
16030;BME280;34770;49.272;11.070;2022-07-09T06:46:28;98701.66;;;19.20;72.50
16030;BME280;34770;49.272;11.070;2022-07-09T06:48:53;98656.47;;;19.13;72.40
16030;BME280;34770;49.272;11.070;2022-07-09T06:51:18;98696.91;;;19.28;72.42
16030;BME280;34770;49.272;11.070;2022-07-09T06:53:44;98687.31;;;19.40;71.09
16030;BME280;34770;49.272;11.070;2022-07-09T06:56:09;98676.84;;;19.44;71.13
16030;BME280;34770;49.272;11.070;2022-07-09T06:58:35;98691.44;;;19.57;70.30
16030;BME280;34770;49.272;11.070;2022-07-09T07:01:00;98683.09;;;19.79;67.81
16030;BME280;34770;49.272;11.070;2022-07-09T07:03:25;98677.97;;;20.02;67.49
16030;BME280;34770;49.272;11.070;2022-07-09T07:05:51;98666.34;;;20.33;67.71
16030;BME280;34770;49.272;11.070;2022-07-09T07:08:16;98684.50;;;20.24;66.70
16030;BME280;34770;49.272;11.070;2022-07-09T07:10:43;98686.84;;;19.97;66.21
16030;BME280;34770;49.272;11.070;2022-07-09T07:13:08;98686.00;;;19.93;65.42
16030;BME280;34770;49.272;11.070;2022-07-09T07:15:35;98692.97;;;19.40;69.00
16030;BME280;34770;49.272;11.070;2022-07-09T07:18:01;98659.88;;;19.37;69.04
16030;BME280;34770;49.272;11.070;2022-07-09T07:20:26;98675.22;;;19.43;68.54
16030;BME280;34770;49.272;11.070;2022-07-09T07:22:52;98682.50;;;19.48;68.08
16030;BME280;34770;49.272;11.070;2022-07-09T07:25:17;98670.00;;;19.45;67.27
16030;BME280;34770;49.272;11.070;2022-07-09T07:27:42;98688.94;;;19.48;68.81
16030;BME280;34770;49.272;11.070;2022-07-09T07:30:08;98689.88;;;19.67;70.37
16030;BME280;34770;49.272;11.070;2022-07-09T07:32:33;98681.03;;;19.72;68.63
16030;BME280;34770;49.272;11.070;2022-07-09T07:34:59;98681.41;;;19.67;67.96
16030;BME280;34770;49.272;11.070;2022-07-09T07:37:24;98682.22;;;19.71;68.11
16030;BME280;34770;49.272;11.070;2022-07-09T07:39:49;98667.38;;;19.81;69.75
16030;BME280;34770;49.272;11.070;2022-07-09T07:42:15;98681.59;;;19.96;67.39
16030;BME280;34770;49.272;11.070;2022-07-09T07:44:41;98676.38;;;20.12;67.17
16030;BME280;34770;49.272;11.070;2022-07-09T07:47:07;98669.59;;;20.35;67.75
16030;BME280;34770;49.272;11.070;2022-07-09T07:49:32;98672.44;;;20.42;65.31
16030;BME280;34770;49.272;11.070;2022-07-09T07:51:58;98669.28;;;20.76;64.18
16030;BME280;34770;49.272;11.070;2022-07-09T07:54:23;98666.06;;;20.96;63.31
16030;BME280;34770;49.272;11.070;2022-07-09T07:56:48;98667.25;;;21.24;63.26
16030;BME280;34770;49.272;11.070;2022-07-09T07:59:15;98663.09;;;21.79;62.58
16030;BME280;34770;49.272;11.070;2022-07-09T08:01:41;98666.97;;;22.25;59.73
16030;BME280;34770;49.272;11.070;2022-07-09T08:04:06;98659.19;;;22.40;59.19
16030;BME280;34770;49.272;11.070;2022-07-09T08:06:32;98659.06;;;22.58;57.31
16030;BME280;34770;49.272;11.070;2022-07-09T08:08:57;98650.06;;;22.70;57.36
16030;BME280;34770;49.272;11.070;2022-07-09T08:11:22;98656.75;;;22.45;58.36
16030;BME280;34770;49.272;11.070;2022-07-09T08:13:48;98652.88;;;22.03;59.85
16030;BME280;34770;49.272;11.070;2022-07-09T08:16:13;98660.25;;;21.90;60.50
16030;BME280;34770;49.272;11.070;2022-07-09T08:18:39;98662.56;;;22.13;58.26
16030;BME280;34770;49.272;11.070;2022-07-09T08:21:05;98642.94;;;21.48;58.69
16030;BME280;34770;49.272;11.070;2022-07-09T08:23:30;98652.59;;;21.76;57.47
16030;BME280;34770;49.272;11.070;2022-07-09T08:25:55;98649.72;;;21.83;59.36
16030;BME280;34770;49.272;11.070;2022-07-09T08:28:21;98656.25;;;21.69;59.17
16030;BME280;34770;49.272;11.070;2022-07-09T08:30:46;98638.13;;;21.30;59.31
16030;BME280;34770;49.272;11.070;2022-07-09T08:33:12;98617.16;;;20.88;61.26
16030;BME280;34770;49.272;11.070;2022-07-09T08:35:37;98642.59;;;21.17;59.66
16030;BME280;34770;49.272;11.070;2022-07-09T08:38:02;98632.47;;;21.34;60.49
16030;BME280;34770;49.272;11.070;2022-07-09T08:40:28;98622.94;;;21.98;57.19
16030;BME280;34770;49.272;11.070;2022-07-09T08:42:54;98621.41;;;22.54;55.16
16030;BME280;34770;49.272;11.070;2022-07-09T08:45:20;98592.94;;;22.05;56.48
16030;BME280;34770;49.272;11.070;2022-07-09T08:47:46;98621.31;;;22.01;57.72
16030;BME280;34770;49.272;11.070;2022-07-09T08:50:13;98591.94;;;21.59;58.26
16030;BME280;34770;49.272;11.070;2022-07-09T08:52:39;98619.53;;;21.29;60.48
16030;BME280;34770;49.272;11.070;2022-07-09T08:55:05;98627.19;;;21.29;59.69
16030;BME280;34770;49.272;11.070;2022-07-09T08:57:33;98617.50;;;21.19;61.16
16030;BME280;34770;49.272;11.070;2022-07-09T09:00:00;98601.69;;;21.43;59.54
16030;BME280;34770;49.272;11.070;2022-07-09T09:02:25;98609.59;;;21.92;59.63
16030;BME280;34770;49.272;11.070;2022-07-09T09:04:50;98609.16;;;22.04;56.88
16030;BME280;34770;49.272;11.070;2022-07-09T09:07:18;98603.72;;;22.28;58.48
16030;BME280;34770;49.272;11.070;2022-07-09T09:09:45;98605.84;;;22.76;57.07
16030;BME280;34770;49.272;11.070;2022-07-09T09:12:11;98604.56;;;22.85;54.87
16030;BME280;34770;49.272;11.070;2022-07-09T09:14:37;98605.91;;;22.69;55.05
16030;BME280;34770;49.272;11.070;2022-07-09T09:17:07;98594.06;;;22.78;55.67
16030;BME280;34770;49.272;11.070;2022-07-09T09:19:35;98594.31;;;22.49;55.38
16030;BME280;34770;49.272;11.070;2022-07-09T09:22:00;98601.09;;;21.92;57.90
16030;BME280;34770;49.272;11.070;2022-07-09T09:24:26;98594.69;;;21.80;58.53
16030;BME280;34770;49.272;11.070;2022-07-09T09:26:56;98594.31;;;21.71;58.97
16030;BME280;34770;49.272;11.070;2022-07-09T09:29:22;98595.19;;;21.50;58.28
16030;BME280;34770;49.272;11.070;2022-07-09T09:31:47;98543.91;;;21.26;58.71
16030;BME280;34770;49.272;11.070;2022-07-09T09:34:15;98583.44;;;21.62;58.94
16030;BME280;34770;49.272;11.070;2022-07-09T09:36:46;98595.03;;;21.97;58.17
16030;BME280;34770;49.272;11.070;2022-07-09T09:39:23;98587.84;;;21.74;56.67
16030;BME280;34770;49.272;11.070;2022-07-09T09:41:53;98577.78;;;21.59;56.76
16030;BME280;34770;49.272;11.070;2022-07-09T09:44:24;98585.38;;;21.83;57.01
16030;BME280;34770;49.272;11.070;2022-07-09T09:46:51;98564.78;;;21.72;55.62
16030;BME280;34770;49.272;11.070;2022-07-09T09:49:17;98584.53;;;21.90;57.18
16030;BME280;34770;49.272;11.070;2022-07-09T09:54:22;98578.53;;;21.70;56.75
16030;BME280;34770;49.272;11.070;2022-07-09T09:56:49;98594.41;;;21.42;58.25
16030;BME280;34770;49.272;11.070;2022-07-09T09:59:15;98592.44;;;21.25;57.81
16030;BME280;34770;49.272;11.070;2022-07-09T10:01:42;98596.13;;;21.14;59.46
16030;BME280;34770;49.272;11.070;2022-07-09T10:04:11;98567.00;;;21.07;60.20
16030;BME280;34770;49.272;11.070;2022-07-09T10:06:38;98594.91;;;21.01;59.72
16030;BME280;34770;49.272;11.070;2022-07-09T10:09:05;98590.06;;;20.98;59.95
16030;BME280;34770;49.272;11.070;2022-07-09T10:11:45;98583.56;;;21.01;60.94
16030;BME280;34770;49.272;11.070;2022-07-09T10:16:54;98591.69;;;21.06;59.88
16030;BME280;34770;49.272;11.070;2022-07-09T10:19:23;98593.31;;;21.03;61.24
16030;BME280;34770;49.272;11.070;2022-07-09T10:21:54;98585.13;;;21.31;60.59
16030;BME280;34770;49.272;11.070;2022-07-09T10:24:33;98574.25;;;21.18;60.89
16030;BME280;34770;49.272;11.070;2022-07-09T10:27:07;98575.44;;;21.32;58.79
16030;BME280;34770;49.272;11.070;2022-07-09T10:29:34;98583.44;;;21.66;58.19
16030;BME280;34770;49.272;11.070;2022-07-09T10:32:00;98578.22;;;21.57;58.70
16030;BME280;34770;49.272;11.070;2022-07-09T10:34:43;98588.22;;;21.80;58.13
16030;BME280;34770;49.272;11.070;2022-07-09T10:37:10;98576.84;;;21.91;56.31
16030;BME280;34770;49.272;11.070;2022-07-09T10:39:36;98554.97;;;21.91;57.47
16030;BME280;34770;49.272;11.070;2022-07-09T10:42:06;98566.38;;;21.80;57.22
16030;BME280;34770;49.272;11.070;2022-07-09T10:44:36;98561.22;;;22.28;56.36
16030;BME280;34770;49.272;11.070;2022-07-09T10:47:03;98563.91;;;22.50;57.01
16030;BME280;34770;49.272;11.070;2022-07-09T10:49:30;98560.53;;;23.11;53.85
16030;BME280;34770;49.272;11.070;2022-07-09T10:51:56;98560.84;;;23.55;52.05
16030;BME280;34770;49.272;11.070;2022-07-09T10:54:25;98551.25;;;23.45;53.04
16030;BME280;34770;49.272;11.070;2022-07-09T10:56:53;98554.59;;;23.36;52.51
16030;BME280;34770;49.272;11.070;2022-07-09T10:59:20;98563.41;;;23.07;53.86
16030;BME280;34770;49.272;11.070;2022-07-09T11:01:46;98539.25;;;22.46;53.45
16030;BME280;34770;49.272;11.070;2022-07-09T11:04:12;98555.69;;;22.66;53.30
16030;BME280;34770;49.272;11.070;2022-07-09T11:06:47;98557.88;;;22.44;54.34
16030;BME280;34770;49.272;11.070;2022-07-09T11:09:14;98551.63;;;22.67;54.26
16030;BME280;34770;49.272;11.070;2022-07-09T11:11:43;98557.06;;;22.47;54.67
16030;BME280;34770;49.272;11.070;2022-07-09T11:14:10;98524.88;;;22.12;55.99
16030;BME280;34770;49.272;11.070;2022-07-09T11:16:36;98551.66;;;22.00;56.06
16030;BME280;34770;49.272;11.070;2022-07-09T11:19:18;98539.75;;;21.52;57.36
16030;BME280;34770;49.272;11.070;2022-07-09T11:21:45;98549.47;;;21.51;57.22
16030;BME280;34770;49.272;11.070;2022-07-09T11:24:15;98545.06;;;21.40;57.68
16030;BME280;34770;49.272;11.070;2022-07-09T11:26:41;98552.00;;;21.28;58.03
16030;BME280;34770;49.272;11.070;2022-07-09T11:29:08;98551.56;;;21.33;58.67
16030;BME280;34770;49.272;11.070;2022-07-09T11:31:34;98558.47;;;21.25;59.59
16030;BME280;34770;49.272;11.070;2022-07-09T11:33:59;98547.91;;;21.32;57.99
16030;BME280;34770;49.272;11.070;2022-07-09T11:36:42;98551.50;;;21.55;58.08
16030;BME280;34770;49.272;11.070;2022-07-09T11:39:08;98547.09;;;21.35;56.08
16030;BME280;34770;49.272;11.070;2022-07-09T11:41:44;98544.72;;;21.23;58.48
16030;BME280;34770;49.272;11.070;2022-07-09T11:44:09;98547.91;;;21.36;57.16
16030;BME280;34770;49.272;11.070;2022-07-09T11:46:39;98556.78;;;21.45;56.37
16030;BME280;34770;49.272;11.070;2022-07-09T11:49:14;98538.59;;;21.39;56.44
16030;BME280;34770;49.272;11.070;2022-07-09T11:51:40;98556.59;;;21.89;55.81
16030;BME280;34770;49.272;11.070;2022-07-09T11:54:06;98546.72;;;22.19;56.61
16030;BME280;34770;49.272;11.070;2022-07-09T11:56:44;98545.63;;;22.58;53.38
16030;BME280;34770;49.272;11.070;2022-07-09T11:59:11;98550.38;;;22.68;53.98
16030;BME280;34770;49.272;11.070;2022-07-09T12:01:37;98538.13;;;22.78;53.99
16030;BME280;34770;49.272;11.070;2022-07-09T12:04:04;98532.75;;;22.46;54.80
16030;BME280;34770;49.272;11.070;2022-07-09T12:06:29;98530.06;;;22.21;54.49
16030;BME280;34770;49.272;11.070;2022-07-09T12:08:59;98523.06;;;22.36;55.49
16030;BME280;34770;49.272;11.070;2022-07-09T12:11:29;98541.56;;;22.59;55.20
16030;BME280;34770;49.272;11.070;2022-07-09T12:13:56;98530.72;;;22.46;54.50
16030;BME280;34770;49.272;11.070;2022-07-09T12:16:21;98534.06;;;22.27;56.36
16030;BME280;34770;49.272;11.070;2022-07-09T12:18:47;98542.03;;;21.90;57.33
16030;BME280;34770;49.272;11.070;2022-07-09T12:21:12;98532.78;;;21.82;57.50
16030;BME280;34770;49.272;11.070;2022-07-09T12:23:37;98521.13;;;21.62;58.10
16030;BME280;34770;49.272;11.070;2022-07-09T12:26:03;98531.75;;;21.36;58.89
16030;BME280;34770;49.272;11.070;2022-07-09T12:28:29;98515.53;;;21.41;58.90
16030;BME280;34770;49.272;11.070;2022-07-09T12:30:54;98521.16;;;21.51;59.06
16030;BME280;34770;49.272;11.070;2022-07-09T12:33:19;98526.06;;;21.40;60.47
16030;BME280;34770;49.272;11.070;2022-07-09T12:35:45;98515.38;;;21.77;58.98
16030;BME280;34770;49.272;11.070;2022-07-09T12:38:10;98510.72;;;22.08;59.28
16030;BME280;34770;49.272;11.070;2022-07-09T12:40:35;98516.84;;;22.03;57.27
16030;BME280;34770;49.272;11.070;2022-07-09T12:43:01;98494.25;;;21.92;57.14
16030;BME280;34770;49.272;11.070;2022-07-09T12:45:26;98484.69;;;21.68;57.49
16030;BME280;34770;49.272;11.070;2022-07-09T12:47:52;98502.97;;;22.16;56.89
16030;BME280;34770;49.272;11.070;2022-07-09T12:50:17;98489.91;;;22.29;55.75